sensor_id;sensor_type;location;lat;lon;timestamp;pressure;altitude;pressure_sealevel;temperature;humidity
9774;BME280;4926;42.670;23.316;2023-07-31T00:02:13;94224.41;;;22.83;83.61
9774;BME280;4926;42.670;23.316;2023-07-31T00:04:41;94220.88;;;22.79;83.34
9774;BME280;4926;42.670;23.316;2023-07-31T00:07:07;94224.41;;;22.83;83.87
9774;BME280;4926;42.670;23.316;2023-07-31T00:09:37;94226.22;;;22.72;84.68
9774;BME280;4926;42.670;23.316;2023-07-31T00:12:04;94226.66;;;22.78;84.90
9774;BME280;4926;42.670;23.316;2023-07-31T00:14:34;94233.63;;;22.75;84.82
9774;BME280;4926;42.670;23.316;2023-07-31T00:17:00;94230.44;;;22.70;84.94
9774;BME280;4926;42.670;23.316;2023-07-31T00:19:27;94234.69;;;22.67;85.21
9774;BME280;4926;42.670;23.316;2023-07-31T00:21:58;94224.22;;;22.69;85.40
9774;BME280;4926;42.670;23.316;2023-07-31T00:24:25;94225.06;;;22.73;87.44
9774;BME280;4926;42.670;23.316;2023-07-31T00:26:52;94228.88;;;22.65;92.08
9774;BME280;4926;42.670;23.316;2023-07-31T00:29:19;94220.09;;;22.49;95.84
9774;BME280;4926;42.670;23.316;2023-07-31T00:31:45;94192.97;;;22.49;98.52
9774;BME280;4926;42.670;23.316;2023-07-31T00:34:17;94185.22;;;22.48;100.00
9774;BME280;4926;42.670;23.316;2023-07-31T00:36:44;94183.50;;;22.36;100.00
9774;BME280;4926;42.670;23.316;2023-07-31T00:39:17;94181.88;;;22.28;100.00
9774;BME280;4926;42.670;23.316;2023-07-31T00:41:44;94178.66;;;22.19;100.00
9774;BME280;4926;42.670;23.316;2023-07-31T00:44:13;94189.91;;;22.21;100.00
9774;BME280;4926;42.670;23.316;2023-07-31T00:46:44;94177.41;;;22.13;100.00
9774;BME280;4926;42.670;23.316;2023-07-31T00:49:11;94187.44;;;22.09;100.00
9774;BME280;4926;42.670;23.316;2023-07-31T00:51:38;94178.56;;;21.82;100.00
9774;BME280;4926;42.670;23.316;2023-07-31T00:54:05;94174.25;;;21.78;100.00
9774;BME280;4926;42.670;23.316;2023-07-31T00:56:35;94176.50;;;21.76;100.00
9774;BME280;4926;42.670;23.316;2023-07-31T00:59:02;94171.09;;;21.76;100.00
9774;BME280;4926;42.670;23.316;2023-07-31T01:01:28;94162.25;;;21.79;100.00
9774;BME280;4926;42.670;23.316;2023-07-31T01:03:55;94162.94;;;21.76;100.00
9774;BME280;4926;42.670;23.316;2023-07-31T01:06:30;94168.44;;;21.79;100.00
9774;BME280;4926;42.670;23.316;2023-07-31T01:09:02;94162.94;;;21.76;100.00
9774;BME280;4926;42.670;23.316;2023-07-31T01:11:31;94174.16;;;21.74;100.00
9774;BME280;4926;42.670;23.316;2023-07-31T01:14:05;94166.69;;;21.68;100.00
9774;BME280;4926;42.670;23.316;2023-07-31T01:16:32;94162.44;;;21.67;100.00
9774;BME280;4926;42.670;23.316;2023-07-31T01:18:59;94159.34;;;21.68;100.00
9774;BME280;4926;42.670;23.316;2023-07-31T01:21:40;94165.16;;;21.67;100.00
9774;BME280;4926;42.670;23.316;2023-07-31T01:24:28;94159.34;;;21.68;100.00
9774;BME280;4926;42.670;23.316;2023-07-31T01:27:02;94165.03;;;21.60;100.00
9774;BME280;4926;42.670;23.316;2023-07-31T01:29:37;94160.50;;;21.67;100.00
9774;BME280;4926;42.670;23.316;2023-07-31T01:32:06;94170.13;;;21.65;100.00
9774;BME280;4926;42.670;23.316;2023-07-31T01:34:34;94159.88;;;21.51;100.00
9774;BME280;4926;42.670;23.316;2023-07-31T01:37:04;94160.63;;;21.48;100.00
9774;BME280;4926;42.670;23.316;2023-07-31T01:39:31;94163.78;;;21.54;100.00
9774;BME280;4926;42.670;23.316;2023-07-31T01:41:59;94159.88;;;21.51;100.00
9774;BME280;4926;42.670;23.316;2023-07-31T01:44:27;94155.25;;;21.52;100.00
9774;BME280;4926;42.670;23.316;2023-07-31T01:46:56;94153.63;;;21.47;100.00
9774;BME280;4926;42.670;23.316;2023-07-31T01:49:25;94152.03;;;21.43;100.00
9774;BME280;4926;42.670;23.316;2023-07-31T01:51:52;94151.66;;;21.44;100.00
9774;BME280;4926;42.670;23.316;2023-07-31T01:54:20;94153.47;;;21.37;100.00
9774;BME280;4926;42.670;23.316;2023-07-31T01:56:47;94159.66;;;21.37;100.00
9774;BME280;4926;42.670;23.316;2023-07-31T01:59:15;94164.41;;;21.44;100.00
9774;BME280;4926;42.670;23.316;2023-07-31T02:01:44;94165.94;;;21.41;100.00
9774;BME280;4926;42.670;23.316;2023-07-31T02:04:10;94155.53;;;21.47;100.00
9774;BME280;4926;42.670;23.316;2023-07-31T02:06:40;94163.97;;;21.42;100.00
9774;BME280;4926;42.670;23.316;2023-07-31T02:09:09;94161.09;;;21.31;100.00
9774;BME280;4926;42.670;23.316;2023-07-31T02:11:38;94165.75;;;21.31;100.00
9774;BME280;4926;42.670;23.316;2023-07-31T02:14:04;94162.22;;;21.27;100.00
9774;BME280;4926;42.670;23.316;2023-07-31T02:16:33;94173.22;;;21.37;100.00
9774;BME280;4926;42.670;23.316;2023-07-31T02:19:01;94178.19;;;21.35;100.00
9774;BME280;4926;42.670;23.316;2023-07-31T02:21:28;94163.44;;;21.33;100.00
9774;BME280;4926;42.670;23.316;2023-07-31T02:23:54;94167.94;;;21.22;100.00
9774;BME280;4926;42.670;23.316;2023-07-31T02:26:21;94160.94;;;21.21;100.00
9774;BME280;4926;42.670;23.316;2023-07-31T02:28:50;94168.06;;;21.29;100.00
9774;BME280;4926;42.670;23.316;2023-07-31T02:31:16;94168.06;;;21.29;100.00
9774;BME280;4926;42.670;23.316;2023-07-31T02:33:48;94173.25;;;21.41;100.00
9774;BME280;4926;42.670;23.316;2023-07-31T02:36:15;94169.81;;;21.44;100.00
9774;BME280;4926;42.670;23.316;2023-07-31T02:38:42;94168.75;;;21.48;100.00
9774;BME280;4926;42.670;23.316;2023-07-31T02:41:08;94172.84;;;21.39;100.00
9774;BME280;4926;42.670;23.316;2023-07-31T02:43:37;94164.28;;;21.37;100.00
9774;BME280;4926;42.670;23.316;2023-07-31T02:46:04;94168.69;;;21.45;100.00
9774;BME280;4926;42.670;23.316;2023-07-31T02:48:31;94184.94;;;21.45;100.00
9774;BME280;4926;42.670;23.316;2023-07-31T02:50:59;94181.88;;;21.46;100.00
9774;BME280;4926;42.670;23.316;2023-07-31T02:53:29;94186.19;;;21.51;100.00
9774;BME280;4926;42.670;23.316;2023-07-31T02:55:57;94183.84;;;21.49;100.00
9774;BME280;4926;42.670;23.316;2023-07-31T02:58:25;94192.88;;;21.57;100.00
9774;BME280;4926;42.670;23.316;2023-07-31T03:00:58;94167.47;;;21.42;100.00
9774;BME280;4926;42.670;23.316;2023-07-31T03:03:24;94201.09;;;21.64;100.00
9774;BME280;4926;42.670;23.316;2023-07-31T03:05:51;94197.19;;;21.61;100.00
9774;BME280;4926;42.670;23.316;2023-07-31T03:08:20;94203.34;;;21.58;100.00
9774;BME280;4926;42.670;23.316;2023-07-31T03:10:46;94202.69;;;21.68;100.00
9774;BME280;4926;42.670;23.316;2023-07-31T03:13:13;94203.56;;;21.72;100.00
9774;BME280;4926;42.670;23.316;2023-07-31T03:15:42;94207.28;;;21.64;100.00
9774;BME280;4926;42.670;23.316;2023-07-31T03:18:08;94208.19;;;21.72;100.00
9774;BME280;4926;42.670;23.316;2023-07-31T03:20:35;94208.97;;;21.72;100.00
9774;BME280;4926;42.670;23.316;2023-07-31T03:23:02;94213.53;;;21.68;100.00
9774;BME280;4926;42.670;23.316;2023-07-31T03:25:30;94204.06;;;21.78;100.00
9774;BME280;4926;42.670;23.316;2023-07-31T03:28:00;94204.53;;;21.87;100.00
9774;BME280;4926;42.670;23.316;2023-07-31T03:30:26;94203.84;;;21.90;100.00
9774;BME280;4926;42.670;23.316;2023-07-31T03:32:53;94202.19;;;21.85;100.00
9774;BME280;4926;42.670;23.316;2023-07-31T03:35:20;94213.88;;;21.89;100.00
9774;BME280;4926;42.670;23.316;2023-07-31T03:37:48;94222.81;;;21.90;100.00
9774;BME280;4926;42.670;23.316;2023-07-31T03:40:15;94220.16;;;21.93;100.00
9774;BME280;4926;42.670;23.316;2023-07-31T03:42:42;94212.38;;;21.92;100.00
9774;BME280;4926;42.670;23.316;2023-07-31T03:45:19;94224.09;;;21.99;100.00
9774;BME280;4926;42.670;23.316;2023-07-31T03:47:46;94221.09;;;22.08;100.00
9774;BME280;4926;42.670;23.316;2023-07-31T03:50:12;94225.34;;;22.05;100.00
9774;BME280;4926;42.670;23.316;2023-07-31T03:52:43;94230.31;;;22.00;100.00
9774;BME280;4926;42.670;23.316;2023-07-31T03:55:14;94236.25;;;22.09;100.00
9774;BME280;4926;42.670;23.316;2023-07-31T03:57:42;94233.94;;;22.11;100.00
9774;BME280;4926;42.670;23.316;2023-07-31T04:00:12;94234.22;;;22.02;100.00
9774;BME280;4926;42.670;23.316;2023-07-31T04:02:39;94239.59;;;21.99;100.00
9774;BME280;4926;42.670;23.316;2023-07-31T04:05:08;94234.22;;;22.02;100.00
9774;BME280;4926;42.670;23.316;2023-07-31T04:07:36;94238.84;;;22.02;100.00
9774;BME280;4926;42.670;23.316;2023-07-31T04:10:03;94237.06;;;21.87;100.00
9774;BME280;4926;42.670;23.316;2023-07-31T04:12:30;94235.94;;;21.88;100.00
9774;BME280;4926;42.670;23.316;2023-07-31T04:14:58;94235.50;;;21.86;100.00
9774;BME280;4926;42.670;23.316;2023-07-31T04:17:25;94241.78;;;21.90;100.00
9774;BME280;4926;42.670;23.316;2023-07-31T04:19:52;94243.31;;;21.91;100.00
9774;BME280;4926;42.670;23.316;2023-07-31T04:22:22;94246.34;;;21.86;100.00
9774;BME280;4926;42.670;23.316;2023-07-31T04:24:48;94247.16;;;21.86;100.00
9774;BME280;4926;42.670;23.316;2023-07-31T04:27:17;94245.63;;;21.89;100.00
9774;BME280;4926;42.670;23.316;2023-07-31T04:29:44;94251.47;;;21.91;100.00
9774;BME280;4926;42.670;23.316;2023-07-31T04:32:14;94247.63;;;21.92;100.00
9774;BME280;4926;42.670;23.316;2023-07-31T04:34:42;94245.78;;;21.99;100.00
9774;BME280;4926;42.670;23.316;2023-07-31T04:37:08;94248.06;;;21.97;100.00
9774;BME280;4926;42.670;23.316;2023-07-31T04:39:35;94252.47;;;22.05;100.00
9774;BME280;4926;42.670;23.316;2023-07-31T04:42:02;94242.84;;;22.11;100.00
9774;BME280;4926;42.670;23.316;2023-07-31T04:44:29;94245.19;;;22.13;100.00
9774;BME280;4926;42.670;23.316;2023-07-31T04:46:56;94242.47;;;22.09;100.00
9774;BME280;4926;42.670;23.316;2023-07-31T04:49:24;94251.44;;;22.17;100.00
9774;BME280;4926;42.670;23.316;2023-07-31T04:51:53;94247.69;;;22.25;100.00
9774;BME280;4926;42.670;23.316;2023-07-31T04:54:20;94253.59;;;22.34;100.00
9774;BME280;4926;42.670;23.316;2023-07-31T04:56:47;94247.06;;;22.35;100.00
9774;BME280;4926;42.670;23.316;2023-07-31T04:59:13;94239.75;;;22.39;100.00
9774;BME280;4926;42.670;23.316;2023-07-31T05:01:40;94249.53;;;22.47;100.00
9774;BME280;4926;42.670;23.316;2023-07-31T05:04:08;94246.19;;;22.57;100.00
9774;BME280;4926;42.670;23.316;2023-07-31T05:06:36;94250.66;;;22.72;100.00
9774;BME280;4926;42.670;23.316;2023-07-31T05:09:03;94241.44;;;22.80;100.00
9774;BME280;4926;42.670;23.316;2023-07-31T05:11:30;94251.28;;;22.95;100.00
9774;BME280;4926;42.670;23.316;2023-07-31T05:13:59;94251.81;;;23.08;99.85
9774;BME280;4926;42.670;23.316;2023-07-31T05:16:26;94246.94;;;23.24;98.73
9774;BME280;4926;42.670;23.316;2023-07-31T05:18:55;94249.34;;;23.29;95.93
9774;BME280;4926;42.670;23.316;2023-07-31T05:21:22;94240.47;;;23.36;95.64
9774;BME280;4926;42.670;23.316;2023-07-31T05:23:50;94239.84;;;23.49;95.46
9774;BME280;4926;42.670;23.316;2023-07-31T05:26:17;94243.72;;;23.52;93.86
9774;BME280;4926;42.670;23.316;2023-07-31T05:28:44;94244.13;;;23.54;93.61
9774;BME280;4926;42.670;23.316;2023-07-31T05:31:10;94242.16;;;23.51;91.88
9774;BME280;4926;42.670;23.316;2023-07-31T05:33:38;94243.72;;;23.52;91.44
9774;BME280;4926;42.670;23.316;2023-07-31T05:36:05;94257.31;;;23.52;91.15
9774;BME280;4926;42.670;23.316;2023-07-31T05:38:34;94245.22;;;23.46;90.81
9774;BME280;4926;42.670;23.316;2023-07-31T05:41:02;94241.28;;;23.40;91.08
9774;BME280;4926;42.670;23.316;2023-07-31T05:43:30;94243.66;;;23.45;90.38
9774;BME280;4926;42.670;23.316;2023-07-31T05:45:57;94243.66;;;23.45;90.62
9774;BME280;4926;42.670;23.316;2023-07-31T05:48:24;94234.47;;;23.60;89.17
9774;BME280;4926;42.670;23.316;2023-07-31T05:50:55;94239.84;;;23.53;86.98
9774;BME280;4926;42.670;23.316;2023-07-31T05:53:22;94240.63;;;23.53;86.09
9774;BME280;4926;42.670;23.316;2023-07-31T05:55:49;94250.38;;;23.58;84.90
9774;BME280;4926;42.670;23.316;2023-07-31T05:58:17;94251.88;;;23.52;85.38
9774;BME280;4926;42.670;23.316;2023-07-31T06:00:43;94246.03;;;23.50;84.75
9774;BME280;4926;42.670;23.316;2023-07-31T06:03:10;94248.41;;;23.55;83.81
9774;BME280;4926;42.670;23.316;2023-07-31T06:05:37;94259.31;;;23.58;83.07
9774;BME280;4926;42.670;23.316;2023-07-31T06:08:07;94253.13;;;23.61;81.58
9774;BME280;4926;42.670;23.316;2023-07-31T06:10:36;94254.34;;;23.71;80.54
9774;BME280;4926;42.670;23.316;2023-07-31T06:13:04;94244.28;;;23.75;78.41
9774;BME280;4926;42.670;23.316;2023-07-31T06:15:40;94248.19;;;23.74;77.17
9774;BME280;4926;42.670;23.316;2023-07-31T06:18:06;94244.28;;;23.75;76.14
9774;BME280;4926;42.670;23.316;2023-07-31T06:20:33;94250.19;;;23.84;75.17
9774;BME280;4926;42.670;23.316;2023-07-31T06:23:02;94255.47;;;23.63;74.56
9774;BME280;4926;42.670;23.316;2023-07-31T06:25:29;94258.59;;;23.65;74.78
9774;BME280;4926;42.670;23.316;2023-07-31T06:27:58;94248.66;;;23.86;74.05
9774;BME280;4926;42.670;23.316;2023-07-31T06:30:24;94249.50;;;23.94;73.25
9774;BME280;4926;42.670;23.316;2023-07-31T06:32:54;94250.78;;;24.07;73.76
9774;BME280;4926;42.670;23.316;2023-07-31T06:35:26;94234.84;;;24.05;73.21
9774;BME280;4926;42.670;23.316;2023-07-31T06:37:55;94244.13;;;24.01;73.95
9774;BME280;4926;42.670;23.316;2023-07-31T06:40:22;94241.81;;;24.03;73.72
9774;BME280;4926;42.670;23.316;2023-07-31T06:42:49;94250.22;;;23.87;74.70
9774;BME280;4926;42.670;23.316;2023-07-31T06:45:15;94261.56;;;23.96;75.05
9774;BME280;4926;42.670;23.316;2023-07-31T06:47:42;94253.47;;;24.03;75.28
9774;BME280;4926;42.670;23.316;2023-07-31T06:50:10;94253.97;;;24.23;74.55
9774;BME280;4926;42.670;23.316;2023-07-31T06:52:40;94245.81;;;24.23;73.68
9774;BME280;4926;42.670;23.316;2023-07-31T06:55:16;94250.00;;;24.06;73.79
9774;BME280;4926;42.670;23.316;2023-07-31T06:57:44;94258.66;;;24.22;74.12
9774;BME280;4926;42.670;23.316;2023-07-31T07:00:14;94242.72;;;24.24;73.08
9774;BME280;4926;42.670;23.316;2023-07-31T07:02:41;94249.69;;;24.22;72.69
9774;BME280;4926;42.670;23.316;2023-07-31T07:05:11;94244.66;;;24.20;72.21
9774;BME280;4926;42.670;23.316;2023-07-31T07:07:38;94247.78;;;24.26;72.24
9774;BME280;4926;42.670;23.316;2023-07-31T07:10:09;94246.63;;;24.27;71.59
9774;BME280;4926;42.670;23.316;2023-07-31T07:12:39;94245.78;;;24.12;72.67
9774;BME280;4926;42.670;23.316;2023-07-31T07:15:06;94247.31;;;24.10;71.56
9774;BME280;4926;42.670;23.316;2023-07-31T07:17:33;94257.19;;;23.85;72.00
9774;BME280;4926;42.670;23.316;2023-07-31T07:20:00;94251.44;;;23.97;71.50
9774;BME280;4926;42.670;23.316;2023-07-31T07:22:30;94244.31;;;24.33;70.73
9774;BME280;4926;42.670;23.316;2023-07-31T07:24:56;94250.56;;;24.33;70.11
9774;BME280;4926;42.670;23.316;2023-07-31T07:27:23;94226.97;;;24.65;68.39
9774;BME280;4926;42.670;23.316;2023-07-31T07:29:50;94222.84;;;24.99;66.79
9774;BME280;4926;42.670;23.316;2023-07-31T07:32:17;94225.22;;;25.25;65.73
9774;BME280;4926;42.670;23.316;2023-07-31T07:34:44;94222.19;;;25.52;64.80
9774;BME280;4926;42.670;23.316;2023-07-31T07:37:11;94231.81;;;25.21;65.48
9774;BME280;4926;42.670;23.316;2023-07-31T07:39:40;94222.09;;;25.16;65.56
9774;BME280;4926;42.670;23.316;2023-07-31T07:42:10;94222.16;;;25.45;63.70
9774;BME280;4926;42.670;23.316;2023-07-31T07:44:37;94217.91;;;25.72;63.30
9774;BME280;4926;42.670;23.316;2023-07-31T07:47:04;94215.53;;;26.05;61.67
9774;BME280;4926;42.670;23.316;2023-07-31T07:49:34;94216.31;;;26.20;61.44
9774;BME280;4926;42.670;23.316;2023-07-31T07:52:01;94212.03;;;25.98;60.80
9774;BME280;4926;42.670;23.316;2023-07-31T07:54:28;94230.69;;;25.36;61.87
9774;BME280;4926;42.670;23.316;2023-07-31T07:56:56;94240.81;;;25.35;61.60
9774;BME280;4926;42.670;23.316;2023-07-31T07:59:28;94227.63;;;25.52;60.96
9774;BME280;4926;42.670;23.316;2023-07-31T08:01:55;94230.75;;;25.61;60.02
9774;BME280;4926;42.670;23.316;2023-07-31T08:04:23;94231.50;;;25.79;59.91
9774;BME280;4926;42.670;23.316;2023-07-31T08:06:52;94242.41;;;25.79;60.38
9774;BME280;4926;42.670;23.316;2023-07-31T08:09:19;94220.59;;;26.14;60.08
9774;BME280;4926;42.670;23.316;2023-07-31T08:11:46;94226.81;;;26.21;59.07
9774;BME280;4926;42.670;23.316;2023-07-31T08:14:17;94217.50;;;26.12;59.51
9774;BME280;4926;42.670;23.316;2023-07-31T08:16:43;94226.03;;;26.28;59.39
9774;BME280;4926;42.670;23.316;2023-07-31T08:19:11;94229.16;;;26.19;58.58
9774;BME280;4926;42.670;23.316;2023-07-31T08:21:37;94220.22;;;26.12;59.12
9774;BME280;4926;42.670;23.316;2023-07-31T08:24:04;94222.44;;;26.56;57.99
9774;BME280;4926;42.670;23.316;2023-07-31T08:26:31;94221.94;;;26.89;56.95
9774;BME280;4926;42.670;23.316;2023-07-31T08:28:58;94208.53;;;27.12;55.32
9774;BME280;4926;42.670;23.316;2023-07-31T08:31:26;94213.31;;;26.97;55.11
9774;BME280;4926;42.670;23.316;2023-07-31T08:33:55;94215.19;;;27.11;54.38
9774;BME280;4926;42.670;23.316;2023-07-31T08:36:27;94203.75;;;27.26;54.36
9774;BME280;4926;42.670;23.316;2023-07-31T08:38:55;94201.28;;;27.49;53.61
9774;BME280;4926;42.670;23.316;2023-07-31T08:41:25;94201.88;;;27.75;53.74
9774;BME280;4926;42.670;23.316;2023-07-31T08:43:53;94200.13;;;27.98;51.78
9774;BME280;4926;42.670;23.316;2023-07-31T08:46:21;94192.41;;;27.86;51.75
9774;BME280;4926;42.670;23.316;2023-07-31T08:48:51;94179.53;;;28.24;50.85
9774;BME280;4926;42.670;23.316;2023-07-31T08:51:19;94179.63;;;28.13;50.67
9774;BME280;4926;42.670;23.316;2023-07-31T08:53:46;94186.88;;;27.93;51.60
9774;BME280;4926;42.670;23.316;2023-07-31T08:56:13;94184.59;;;27.85;51.67
9774;BME280;4926;42.670;23.316;2023-07-31T08:58:43;94184.78;;;27.64;51.00
9774;BME280;4926;42.670;23.316;2023-07-31T09:01:10;94198.31;;;27.26;52.00
9774;BME280;4926;42.670;23.316;2023-07-31T09:03:38;94194.28;;;27.45;52.20
9774;BME280;4926;42.670;23.316;2023-07-31T09:06:08;94195.91;;;27.87;51.35
9774;BME280;4926;42.670;23.316;2023-07-31T09:08:39;94187.72;;;27.87;50.76
9774;BME280;4926;42.670;23.316;2023-07-31T09:11:08;94190.91;;;28.19;50.38
9774;BME280;4926;42.670;23.316;2023-07-31T09:13:35;94189.88;;;28.09;49.67
9774;BME280;4926;42.670;23.316;2023-07-31T09:16:02;94183.16;;;27.66;50.07
9774;BME280;4926;42.670;23.316;2023-07-31T09:18:28;94188.53;;;27.32;50.91
9774;BME280;4926;42.670;23.316;2023-07-31T09:21:02;94173.25;;;27.38;51.02
9774;BME280;4926;42.670;23.316;2023-07-31T09:23:41;94165.56;;;28.15;50.48
9774;BME280;4926;42.670;23.316;2023-07-31T09:26:08;94161.28;;;28.47;48.71
9774;BME280;4926;42.670;23.316;2023-07-31T09:28:37;94163.97;;;28.17;49.58
9774;BME280;4926;42.670;23.316;2023-07-31T09:31:04;94147.72;;;28.00;49.82
9774;BME280;4926;42.670;23.316;2023-07-31T09:33:30;94163.50;;;27.82;50.72
9774;BME280;4926;42.670;23.316;2023-07-31T09:35:58;94157.78;;;28.10;50.77
9774;BME280;4926;42.670;23.316;2023-07-31T09:38:27;94150.03;;;28.72;49.08
9774;BME280;4926;42.670;23.316;2023-07-31T09:40:58;94142.56;;;29.03;48.21
9774;BME280;4926;42.670;23.316;2023-07-31T09:43:25;94140.78;;;29.19;47.91
9774;BME280;4926;42.670;23.316;2023-07-31T09:45:56;94127.84;;;29.93;46.90
9774;BME280;4926;42.670;23.316;2023-07-31T09:48:24;94117.72;;;30.09;45.35
9774;BME280;4926;42.670;23.316;2023-07-31T09:50:55;94126.34;;;29.88;45.19
9774;BME280;4926;42.670;23.316;2023-07-31T09:53:28;94125.78;;;29.50;45.75
9774;BME280;4926;42.670;23.316;2023-07-31T09:55:58;94121.19;;;29.44;46.12
9774;BME280;4926;42.670;23.316;2023-07-31T09:58:27;94137.47;;;29.31;46.84
9774;BME280;4926;42.670;23.316;2023-07-31T10:00:57;94129.19;;;29.58;45.60
9774;BME280;4926;42.670;23.316;2023-07-31T10:03:25;94112.59;;;29.69;45.02
9774;BME280;4926;42.670;23.316;2023-07-31T10:05:53;94115.47;;;30.24;44.41
9774;BME280;4926;42.670;23.316;2023-07-31T10:08:28;94108.44;;;30.23;43.94
9774;BME280;4926;42.670;23.316;2023-07-31T10:11:02;94102.53;;;29.82;44.74
9774;BME280;4926;42.670;23.316;2023-07-31T10:13:30;94102.13;;;29.83;43.93
9774;BME280;4926;42.670;23.316;2023-07-31T10:15:59;94100.44;;;30.32;43.70
9774;BME280;4926;42.670;23.316;2023-07-31T10:18:26;94096.69;;;30.61;42.69
9774;BME280;4926;42.670;23.316;2023-07-31T10:20:54;94094.63;;;30.85;41.90
9774;BME280;4926;42.670;23.316;2023-07-31T10:23:22;94091.97;;;30.23;42.52
9774;BME280;4926;42.670;23.316;2023-07-31T10:25:49;94091.78;;;30.69;41.95
9774;BME280;4926;42.670;23.316;2023-07-31T10:28:18;94079.53;;;31.09;41.40
9774;BME280;4926;42.670;23.316;2023-07-31T10:30:46;94084.75;;;31.04;41.58
9774;BME280;4926;42.670;23.316;2023-07-31T10:33:13;94075.56;;;30.94;41.79
9774;BME280;4926;42.670;23.316;2023-07-31T10:35:40;94086.38;;;29.87;43.48
9774;BME280;4926;42.670;23.316;2023-07-31T10:38:10;94086.44;;;29.84;44.09
9774;BME280;4926;42.670;23.316;2023-07-31T10:40:38;94091.75;;;30.14;43.51
9774;BME280;4926;42.670;23.316;2023-07-31T10:43:07;94090.28;;;30.48;42.33
9774;BME280;4926;42.670;23.316;2023-07-31T10:45:39;94081.75;;;30.98;42.14
9774;BME280;4926;42.670;23.316;2023-07-31T10:48:07;94059.19;;;31.55;40.38
9774;BME280;4926;42.670;23.316;2023-07-31T10:50:47;94071.31;;;31.41;41.01
9774;BME280;4926;42.670;23.316;2023-07-31T10:53:23;94069.31;;;31.26;40.72
9774;BME280;4926;42.670;23.316;2023-07-31T10:55:50;94050.84;;;31.10;40.96
9774;BME280;4926;42.670;23.316;2023-07-31T10:58:21;94055.09;;;30.95;41.17
9774;BME280;4926;42.670;23.316;2023-07-31T11:00:49;94056.94;;;31.50;40.78
9774;BME280;4926;42.670;23.316;2023-07-31T11:03:18;94044.41;;;31.77;38.61
9774;BME280;4926;42.670;23.316;2023-07-31T11:05:50;94035.16;;;31.71;38.46
9774;BME280;4926;42.670;23.316;2023-07-31T11:08:20;94019.91;;;32.12;37.88
9774;BME280;4926;42.670;23.316;2023-07-31T11:10:49;94026.13;;;32.28;37.77
9774;BME280;4926;42.670;23.316;2023-07-31T11:13:19;94022.91;;;32.17;37.68
9774;BME280;4926;42.670;23.316;2023-07-31T11:15:46;94015.81;;;32.45;37.39
9774;BME280;4926;42.670;23.316;2023-07-31T11:18:17;94017.59;;;32.64;36.81
9774;BME280;4926;42.670;23.316;2023-07-31T11:20:44;94014.34;;;32.94;36.52
9774;BME280;4926;42.670;23.316;2023-07-31T11:23:11;94010.66;;;33.22;36.42
9774;BME280;4926;42.670;23.316;2023-07-31T11:25:39;94011.75;;;33.12;36.21
9774;BME280;4926;42.670;23.316;2023-07-31T11:28:14;94009.66;;;32.91;36.07
9774;BME280;4926;42.670;23.316;2023-07-31T11:30:42;94000.25;;;33.39;35.90
9774;BME280;4926;42.670;23.316;2023-07-31T11:33:11;93996.19;;;33.43;35.47
9774;BME280;4926;42.670;23.316;2023-07-31T11:35:44;94009.44;;;33.23;35.57
9774;BME280;4926;42.670;23.316;2023-07-31T11:38:11;93989.16;;;32.67;36.40
9774;BME280;4926;42.670;23.316;2023-07-31T11:40:41;94018.75;;;31.97;36.97
9774;BME280;4926;42.670;23.316;2023-07-31T11:43:08;94037.44;;;31.44;38.64
9774;BME280;4926;42.670;23.316;2023-07-31T11:45:38;94045.38;;;30.55;39.89
9774;BME280;4926;42.670;23.316;2023-07-31T11:48:06;94043.78;;;30.38;40.43
9774;BME280;4926;42.670;23.316;2023-07-31T11:50:36;94046.03;;;30.43;40.25
9774;BME280;4926;42.670;23.316;2023-07-31T11:53:07;94028.47;;;30.92;39.73
9774;BME280;4926;42.670;23.316;2023-07-31T11:55:35;94030.03;;;31.25;38.97
9774;BME280;4926;42.670;23.316;2023-07-31T11:58:02;94026.56;;;31.21;39.17
9774;BME280;4926;42.670;23.316;2023-07-31T12:00:29;94031.75;;;31.51;39.13
9774;BME280;4926;42.670;23.316;2023-07-31T12:02:59;94011.69;;;32.24;37.54
9774;BME280;4926;42.670;23.316;2023-07-31T12:05:26;94015.63;;;32.64;37.04
9774;BME280;4926;42.670;23.316;2023-07-31T12:07:54;94011.66;;;32.78;36.35
9774;BME280;4926;42.670;23.316;2023-07-31T12:10:27;94005.47;;;32.08;37.93
9774;BME280;4926;42.670;23.316;2023-07-31T12:12:59;94003.50;;;32.08;37.58
9774;BME280;4926;42.670;23.316;2023-07-31T12:15:35;94003.34;;;31.99;37.99
9774;BME280;4926;42.670;23.316;2023-07-31T12:18:04;93990.94;;;32.61;37.45
9774;BME280;4926;42.670;23.316;2023-07-31T12:20:32;93996.53;;;32.83;36.87
9774;BME280;4926;42.670;23.316;2023-07-31T12:23:00;93999.41;;;32.66;37.59
9774;BME280;4926;42.670;23.316;2023-07-31T12:25:32;94002.88;;;32.29;38.39
9774;BME280;4926;42.670;23.316;2023-07-31T12:28:05;94012.09;;;32.23;38.52
9774;BME280;4926;42.670;23.316;2023-07-31T12:30:36;94011.47;;;31.29;39.21
9774;BME280;4926;42.670;23.316;2023-07-31T12:33:04;94018.69;;;30.91;39.74
9774;BME280;4926;42.670;23.316;2023-07-31T12:35:36;94020.38;;;30.49;39.39
9774;BME280;4926;42.670;23.316;2023-07-31T12:38:06;94014.72;;;30.40;39.92
9774;BME280;4926;42.670;23.316;2023-07-31T12:40:38;94013.38;;;30.64;39.24
9774;BME280;4926;42.670;23.316;2023-07-31T12:43:05;94007.72;;;30.72;39.14
9774;BME280;4926;42.670;23.316;2023-07-31T12:45:32;94002.56;;;30.57;38.93
9774;BME280;4926;42.670;23.316;2023-07-31T12:47:59;94020.84;;;30.09;39.30
9774;BME280;4926;42.670;23.316;2023-07-31T12:50:26;94005.00;;;29.77;39.73
9774;BME280;4926;42.670;23.316;2023-07-31T12:52:56;94011.81;;;29.69;40.55
9774;BME280;4926;42.670;23.316;2023-07-31T12:55:24;93997.56;;;29.54;40.70
9774;BME280;4926;42.670;23.316;2023-07-31T12:57:52;94003.75;;;29.58;40.73
9774;BME280;4926;42.670;23.316;2023-07-31T13:00:19;94007.59;;;29.41;41.32
9774;BME280;4926;42.670;23.316;2023-07-31T13:02:45;93998.97;;;29.62;41.07
9774;BME280;4926;42.670;23.316;2023-07-31T13:05:12;94004.56;;;30.18;40.16
9774;BME280;4926;42.670;23.316;2023-07-31T13:07:39;93999.38;;;30.59;39.95
9774;BME280;4926;42.670;23.316;2023-07-31T13:10:09;93988.03;;;30.57;40.31
9774;BME280;4926;42.670;23.316;2023-07-31T13:12:38;93997.28;;;30.47;40.54
9774;BME280;4926;42.670;23.316;2023-07-31T13:15:07;94003.88;;;30.14;40.14